createdAt,value
2018-05-18T00:00:15.865Z,4.93
2018-05-18T00:02:42.806Z,5.00
2018-05-18T00:05:09.737Z,5.43
2018-05-18T00:07:36.661Z,4.80
2018-05-18T00:10:02.866Z,4.93
2018-05-18T00:12:29.132Z,5.60
2018-05-18T00:14:55.322Z,4.73
2018-05-18T00:17:21.561Z,4.97
2018-05-18T00:19:48.542Z,5.30
2018-05-18T00:22:15.516Z,4.97
2018-05-18T00:24:41.719Z,4.83
2018-05-18T00:27:07.929Z,5.17
2018-05-18T00:29:34.929Z,4.57
2018-05-18T00:32:01.150Z,4.80
2018-05-18T00:34:27.357Z,5.03
2018-05-18T00:36:53.577Z,4.80
2018-05-18T00:39:19.785Z,5.43
2018-05-18T00:41:46.076Z,4.97
2018-05-18T00:44:12.287Z,4.80
2018-05-18T00:46:39.216Z,5.10
2018-05-18T00:49:05.417Z,4.77
2018-05-18T00:51:31.631Z,5.10
2018-05-18T00:53:58.073Z,4.60
2018-05-18T00:56:24.293Z,4.90
2018-05-18T00:58:50.499Z,4.97
2018-05-18T01:01:16.690Z,4.57
2018-05-18T01:03:42.885Z,4.77
2018-05-18T01:06:09.825Z,4.87
2018-05-18T01:08:36.752Z,4.60
2018-05-18T01:11:02.914Z,5.60
2018-05-18T01:13:29.132Z,4.90
2018-05-18T01:15:55.424Z,5.20
2018-05-18T01:18:21.555Z,4.90
2018-05-18T01:20:47.785Z,4.80
2018-05-18T01:23:14.046Z,5.60
2018-05-18T01:25:40.282Z,4.83
2018-05-18T01:28:06.601Z,4.93
2018-05-18T01:30:32.777Z,5.50
2018-05-18T01:32:59.011Z,5.50
2018-05-18T01:35:25.208Z,5.30
2018-05-18T01:37:51.457Z,5.30
2018-05-18T01:40:17.675Z,5.17
2018-05-18T01:42:43.878Z,5.47
2018-05-18T01:45:10.103Z,5.33
2018-05-18T01:47:37.048Z,5.20
2018-05-18T01:50:03.956Z,5.30
2018-05-18T01:52:30.739Z,5.23
2018-05-18T01:54:56.935Z,4.93
2018-05-18T01:57:23.108Z,5.67
2018-05-18T01:59:50.066Z,5.93
2018-05-18T02:02:16.968Z,5.63
2018-05-18T02:04:43.148Z,5.30
2018-05-18T02:07:10.054Z,5.83
2018-05-18T02:09:36.212Z,6.07
2018-05-18T02:12:02.444Z,5.20
2018-05-18T02:14:28.609Z,5.93
2018-05-18T02:16:54.837Z,5.87
2018-05-18T02:19:21.037Z,5.60
2018-05-18T02:21:47.976Z,5.60
2018-05-18T02:24:14.125Z,5.77
2018-05-18T02:26:40.297Z,6.17
2018-05-18T02:29:07.234Z,5.23
2018-05-18T02:31:34.132Z,5.70
2018-05-18T02:34:00.347Z,6.70
2018-05-18T02:36:26.508Z,5.70
2018-05-18T02:38:52.730Z,5.57
2018-05-18T02:41:18.917Z,5.87
2018-05-18T02:43:45.880Z,6.23
2018-05-18T02:46:12.776Z,6.00
2018-05-18T02:48:38.935Z,6.93
2018-05-18T02:51:05.133Z,5.80
2018-05-18T02:53:32.093Z,6.27
2018-05-18T02:55:58.250Z,6.70
2018-05-18T02:58:24.457Z,6.40
2018-05-18T03:00:50.649Z,6.40
2018-05-18T03:03:16.832Z,8.13
2018-05-18T03:05:43.047Z,6.93
2018-05-18T03:08:09.212Z,7.27
2018-05-18T03:10:35.363Z,6.27
2018-05-18T03:13:01.537Z,7.33
2018-05-18T03:15:27.700Z,7.10
2018-05-18T03:17:53.908Z,7.90
2018-05-18T03:20:20.179Z,7.67
2018-05-18T03:22:46.395Z,7.37
2018-05-18T03:25:12.627Z,7.70
2018-05-18T03:27:38.757Z,7.23
2018-05-18T03:30:04.978Z,7.43
2018-05-18T03:32:31.125Z,7.10
2018-05-18T03:34:57.334Z,7.83
2018-05-18T03:37:23.521Z,7.90
2018-05-18T03:39:51.201Z,7.93
2018-05-18T03:42:18.088Z,7.63
2018-05-18T03:44:44.247Z,7.87
2018-05-18T03:47:10.421Z,7.77
2018-05-18T03:49:37.359Z,7.63
2018-05-18T03:52:03.540Z,7.67
2018-05-18T03:54:30.193Z,8.33
2018-05-18T03:56:56.369Z,8.07
2018-05-18T03:59:22.538Z,8.23
2018-05-18T04:05:16.029Z,8.67
2018-05-18T04:08:00.764Z,8.57
2018-05-18T04:10:26.933Z,8.10
2018-05-18T04:12:53.165Z,9.27
2018-05-18T04:15:19.336Z,8.20
2018-05-18T04:17:46.293Z,8.40
2018-05-18T04:20:13.235Z,8.57
2018-05-18T04:22:39.343Z,7.83
2018-05-18T04:25:05.498Z,8.70
2018-05-18T04:27:32.672Z,8.53
2018-05-18T04:29:58.952Z,8.23
2018-05-18T04:32:25.241Z,8.27
2018-05-18T04:34:52.159Z,7.83
2018-05-18T04:37:18.330Z,8.00
2018-05-18T04:39:45.241Z,7.63
2018-05-18T04:42:13.263Z,7.87
2018-05-18T04:44:39.437Z,8.07
2018-05-18T04:47:05.666Z,7.93
2018-05-18T04:49:32.100Z,7.77
2018-05-18T04:51:59.055Z,8.10
2018-05-18T04:54:25.229Z,7.87
2018-05-18T04:56:52.203Z,8.90
2018-05-18T04:59:18.389Z,8.37
2018-05-18T05:01:44.568Z,8.90
2018-05-18T05:04:10.828Z,8.33
2018-05-18T05:06:37.129Z,7.60
2018-05-18T05:09:03.453Z,8.23
2018-05-18T05:11:29.651Z,7.97
2018-05-18T05:13:55.984Z,8.13
2018-05-18T05:16:23.321Z,8.07
2018-05-18T05:18:50.038Z,7.90
2018-05-18T05:21:16.299Z,8.00
2018-05-18T05:23:43.503Z,8.17
2018-05-18T05:26:09.633Z,7.10
2018-05-18T05:28:36.440Z,8.17
2018-05-18T05:31:02.664Z,7.40
2018-05-18T05:33:28.984Z,7.33
2018-05-18T05:35:55.743Z,7.03
2018-05-18T05:38:21.921Z,7.20
2018-05-18T05:40:48.093Z,7.53
2018-05-18T05:43:14.997Z,7.73
2018-05-18T05:45:41.378Z,7.43
2018-05-18T05:48:08.277Z,6.83
2018-05-18T05:50:34.484Z,7.30
2018-05-18T05:53:00.922Z,7.63
2018-05-18T05:55:27.726Z,6.73
2018-05-18T05:57:54.019Z,7.30
2018-05-18T06:00:20.184Z,7.07
2018-05-18T06:02:46.598Z,7.50
2018-05-18T06:05:12.772Z,7.27
2018-05-18T06:07:38.958Z,6.90
2018-05-18T06:10:06.011Z,7.37
2018-05-18T06:12:33.215Z,6.93
2018-05-18T06:15:00.132Z,6.80
2018-05-18T06:17:26.281Z,7.47
2018-05-18T06:19:52.530Z,6.63
2018-05-18T06:22:18.696Z,6.73
2018-05-18T06:24:44.881Z,6.50
2018-05-18T06:27:12.778Z,7.63
2018-05-18T06:29:38.937Z,7.03
2018-05-18T06:32:05.197Z,6.87
2018-05-18T06:34:31.368Z,7.03
2018-05-18T06:36:57.526Z,7.03
2018-05-18T06:39:24.423Z,6.37
2018-05-18T06:41:50.618Z,7.10
2018-05-18T06:44:17.520Z,6.83
2018-05-18T06:46:44.517Z,6.40
2018-05-18T06:49:10.726Z,6.73
2018-05-18T06:51:37.680Z,6.27
2018-05-18T06:54:03.893Z,6.63
2018-05-18T06:56:30.069Z,6.67
2018-05-18T06:58:57.150Z,6.67
2018-05-18T07:01:23.490Z,7.00
2018-05-18T07:03:49.779Z,6.60
2018-05-18T07:06:16.712Z,6.10
2018-05-18T07:08:42.960Z,7.57
2018-05-18T07:11:09.564Z,6.57
2018-05-18T07:13:35.787Z,7.27
2018-05-18T07:16:01.969Z,7.27
2018-05-18T07:18:28.206Z,6.23
2018-05-18T07:20:54.393Z,6.83
2018-05-18T07:23:20.675Z,6.90
2018-05-18T07:25:47.605Z,6.97
2018-05-18T07:28:13.887Z,7.10
2018-05-18T07:30:40.065Z,6.73
2018-05-18T07:33:06.224Z,6.63
2018-05-18T07:35:32.384Z,5.97
2018-05-18T07:37:58.557Z,6.50
2018-05-18T07:40:24.738Z,6.10
2018-05-18T07:42:51.628Z,6.30
2018-05-18T07:45:17.841Z,6.30
2018-05-18T07:47:44.035Z,6.17
2018-05-18T07:50:10.277Z,6.60
2018-05-18T07:52:36.433Z,5.87
2018-05-18T07:55:03.429Z,5.57
2018-05-18T07:57:29.616Z,6.07
2018-05-18T07:59:56.529Z,5.47
2018-05-18T08:02:22.727Z,5.37
2018-05-18T08:04:48.874Z,5.10
2018-05-18T08:07:15.041Z,5.20
2018-05-18T08:09:41.226Z,4.97
2018-05-18T08:12:07.416Z,5.00
2018-05-18T08:14:34.347Z,4.50
2018-05-18T08:17:00.569Z,5.30
2018-05-18T08:19:26.781Z,5.13
2018-05-18T08:21:52.943Z,5.00
2018-05-18T08:24:19.117Z,4.73
2018-05-18T08:27:04.847Z,4.13
2018-05-18T08:29:31.951Z,4.60
2018-05-18T08:31:58.191Z,5.43
2018-05-18T08:34:24.827Z,5.63
2018-05-18T08:36:51.729Z,5.27
2018-05-18T08:39:17.898Z,5.70
2018-05-18T08:41:44.812Z,6.43
2018-05-18T08:44:11.021Z,6.80
2018-05-18T08:46:37.197Z,7.43
2018-05-18T08:49:03.382Z,7.63
2018-05-18T08:51:29.572Z,9.07
2018-05-18T08:53:55.761Z,8.20
2018-05-18T08:56:21.915Z,8.73
2018-05-18T08:58:48.090Z,8.17
2018-05-18T09:01:15.004Z,9.40
2018-05-18T09:03:41.184Z,10.30
2018-05-18T09:06:08.119Z,10.57
2018-05-18T09:08:34.254Z,12.30
2018-05-18T09:11:00.434Z,13.13
2018-05-18T09:13:26.631Z,12.73
2018-05-18T09:15:52.805Z,13.83
2018-05-18T09:18:18.982Z,13.67
2018-05-18T09:20:45.180Z,14.23
2018-05-18T09:23:11.360Z,13.80
2018-05-18T09:25:38.271Z,14.93
2018-05-18T09:28:04.471Z,13.67
2018-05-18T09:30:30.759Z,13.77
2018-05-18T09:32:56.986Z,13.50
2018-05-18T09:35:23.147Z,13.53
2018-05-18T09:37:50.080Z,13.30
2018-05-18T09:40:16.325Z,13.27
2018-05-18T09:42:43.224Z,12.40
2018-05-18T09:45:09.467Z,13.10
2018-05-18T09:47:35.600Z,12.83
2018-05-18T09:50:01.830Z,13.30
2018-05-18T09:52:28.016Z,11.90
2018-05-18T09:54:55.063Z,12.20
2018-05-18T09:57:21.410Z,12.33
2018-05-18T09:59:48.323Z,10.93
2018-05-18T10:02:14.546Z,11.90
2018-05-18T10:04:40.714Z,12.80
2018-05-18T10:07:07.868Z,12.23
2018-05-18T10:09:34.045Z,13.53
2018-05-18T10:12:00.255Z,14.20
2018-05-18T10:14:34.116Z,13.53
2018-05-18T10:17:03.608Z,13.77
2018-05-18T10:19:29.781Z,14.03
2018-05-18T10:21:55.995Z,13.60
2018-05-18T10:24:22.173Z,12.20
2018-05-18T10:26:49.093Z,12.50
2018-05-18T10:29:16.329Z,13.40
2018-05-18T10:31:42.489Z,12.83
2018-05-18T10:34:09.432Z,12.80
2018-05-18T10:36:35.632Z,12.97
2018-05-18T10:39:01.825Z,14.13
2018-05-18T10:41:28.746Z,13.47
2018-05-18T10:43:54.905Z,13.37
2018-05-18T10:46:21.065Z,13.20
2018-05-18T10:48:47.253Z,14.17
2018-05-18T10:51:14.232Z,14.23
2018-05-18T10:53:40.432Z,15.07
2018-05-18T10:56:06.624Z,14.57
2018-05-18T10:58:32.823Z,14.70
2018-05-18T11:00:58.936Z,14.17
2018-05-18T11:03:25.103Z,14.97
2018-05-18T11:05:51.785Z,16.03
2018-05-18T11:08:17.947Z,15.03
2018-05-18T11:10:44.329Z,15.43
2018-05-18T11:13:10.501Z,14.40
2018-05-18T11:15:36.677Z,14.03
2018-05-18T11:18:03.007Z,13.40
2018-05-18T11:20:29.911Z,12.30
2018-05-18T11:22:56.080Z,11.23
2018-05-18T11:25:22.730Z,11.67
2018-05-18T11:27:49.737Z,11.00
2018-05-18T11:30:16.457Z,13.70
2018-05-18T11:32:42.634Z,13.90
2018-05-18T11:35:08.816Z,14.33
2018-05-18T11:37:34.994Z,14.87
2018-05-18T11:40:01.281Z,15.07
2018-05-18T11:42:27.516Z,14.40
2018-05-18T11:44:53.730Z,13.70
2018-05-18T11:47:19.975Z,12.33
2018-05-18T11:49:46.226Z,12.80
2018-05-18T11:52:12.385Z,11.10
2018-05-18T11:54:38.583Z,12.77
2018-05-18T11:57:04.770Z,12.03
2018-05-18T11:59:31.010Z,12.50
2018-05-18T12:01:57.226Z,13.10
2018-05-18T12:04:23.457Z,14.33
2018-05-18T12:06:49.636Z,14.00
2018-05-18T12:09:17.167Z,13.30
2018-05-18T12:11:43.331Z,12.70
2018-05-18T12:14:10.349Z,13.17
2018-05-18T12:16:37.251Z,12.83
2018-05-18T12:19:03.446Z,13.37
2018-05-18T12:21:29.664Z,13.87
2018-05-18T12:23:55.881Z,14.37
2018-05-18T12:26:22.077Z,13.13
2018-05-18T12:28:49.016Z,13.20
2018-05-18T12:31:15.623Z,12.70
2018-05-18T12:33:41.801Z,12.27
2018-05-18T12:36:08.032Z,13.67
2018-05-18T12:38:34.985Z,13.90
2018-05-18T12:41:01.154Z,13.40
2018-05-18T12:43:27.349Z,13.17
2018-05-18T12:45:55.035Z,12.87
2018-05-18T12:48:21.269Z,14.53
2018-05-18T12:50:47.513Z,14.07
2018-05-18T12:53:13.685Z,13.57
2018-05-18T12:55:39.904Z,12.03
2018-05-18T12:58:06.142Z,12.20
2018-05-18T13:00:32.326Z,10.67
2018-05-18T13:02:59.274Z,12.57
2018-05-18T13:05:25.453Z,12.57
2018-05-18T13:07:51.655Z,11.70
2018-05-18T13:10:17.874Z,12.00
2018-05-18T13:12:44.036Z,13.27
2018-05-18T13:15:10.229Z,12.63
2018-05-18T13:17:36.421Z,13.07
2018-05-18T13:20:02.633Z,15.20
2018-05-18T13:22:28.850Z,14.90
2018-05-18T13:24:55.798Z,14.33
2018-05-18T13:27:22.708Z,13.83
2018-05-18T13:29:49.465Z,14.73
2018-05-18T13:32:15.674Z,14.27
2018-05-18T13:34:41.865Z,13.83
2018-05-18T13:37:08.747Z,14.13
2018-05-18T13:39:34.977Z,15.13
2018-05-18T13:42:01.224Z,13.70
2018-05-18T13:44:27.423Z,14.67
2018-05-18T13:46:54.360Z,13.70
2018-05-18T13:49:20.526Z,14.57
2018-05-18T13:51:46.731Z,14.43
2018-05-18T13:54:12.972Z,14.17
2018-05-18T13:56:39.125Z,15.37
2018-05-18T13:59:05.315Z,15.57
2018-05-18T14:01:32.273Z,15.40
2018-05-18T14:03:58.495Z,14.23
2018-05-18T14:06:24.642Z,14.43
2018-05-18T14:08:50.816Z,13.47
2018-05-18T14:11:17.014Z,14.47
2018-05-18T14:13:43.941Z,12.87
2018-05-18T14:16:10.888Z,12.73
2018-05-18T14:18:37.091Z,12.73
2018-05-18T14:21:03.307Z,13.30
2018-05-18T14:23:29.454Z,13.93
2018-05-18T14:25:55.622Z,14.40
2018-05-18T14:28:21.835Z,14.20
2018-05-18T14:30:48.434Z,15.43
2018-05-18T14:33:14.572Z,14.90
2018-05-18T14:35:41.520Z,15.17
2018-05-18T14:38:08.545Z,15.30
2018-05-18T14:40:35.458Z,16.00
2018-05-18T14:43:01.652Z,16.57
2018-05-18T14:45:28.584Z,16.33
2018-05-18T14:47:55.530Z,18.13
2018-05-18T14:50:21.721Z,16.53
2018-05-18T14:52:47.881Z,17.10
2018-05-18T14:55:14.077Z,18.20
2018-05-18T14:57:40.971Z,16.67
2018-05-18T15:00:07.136Z,16.47
2018-05-18T15:02:33.382Z,16.17
2018-05-18T15:05:00.284Z,15.73
2018-05-18T15:07:26.452Z,16.03
2018-05-18T15:09:52.615Z,15.13
2018-05-18T15:12:19.028Z,16.37
2018-05-18T15:14:45.206Z,17.40
2018-05-18T15:17:11.476Z,15.93
2018-05-18T15:19:38.295Z,16.00
2018-05-18T15:22:04.516Z,16.47
2018-05-18T15:24:30.739Z,17.10
2018-05-18T15:26:56.916Z,16.17
2018-05-18T15:29:23.081Z,17.37
2018-05-18T15:31:49.987Z,17.20
2018-05-18T15:34:16.164Z,14.90
2018-05-18T15:36:42.404Z,14.63
2018-05-18T15:39:09.339Z,13.97
2018-05-18T15:41:35.536Z,13.43
2018-05-18T15:44:01.812Z,13.10
2018-05-18T15:46:28.747Z,11.30
2018-05-18T15:48:54.917Z,11.30
2018-05-18T15:51:21.121Z,9.57
2018-05-18T15:53:47.413Z,9.80
2018-05-18T15:56:13.588Z,9.67
2018-05-18T15:58:40.585Z,9.43
2018-05-18T16:01:06.798Z,9.07
2018-05-18T16:03:33.727Z,9.33
2018-05-18T16:05:59.897Z,9.67
2018-05-18T16:08:26.104Z,9.20
2018-05-18T16:10:53.866Z,8.63
2018-05-18T16:13:20.854Z,9.03
2018-05-18T16:15:47.076Z,10.23
2018-05-18T16:18:13.272Z,10.03
2018-05-18T16:20:39.519Z,9.43
2018-05-18T16:23:06.452Z,9.97
2018-05-18T16:25:33.460Z,9.90
2018-05-18T16:27:59.738Z,10.03
2018-05-18T16:30:25.876Z,8.33
2018-05-18T16:32:53.513Z,8.57
2018-05-18T16:35:19.683Z,8.67
2018-05-18T16:37:46.690Z,7.87
2018-05-18T16:40:12.998Z,7.77
2018-05-18T16:42:39.344Z,8.37
2018-05-18T16:45:05.620Z,7.87
2018-05-18T16:47:31.842Z,7.83
2018-05-18T16:49:58.067Z,8.07
2018-05-18T16:52:24.265Z,7.23
2018-05-18T16:54:50.511Z,7.53
2018-05-18T16:57:16.756Z,7.80
2018-05-18T16:59:43.670Z,7.47
2018-05-18T17:02:09.818Z,8.03
2018-05-18T17:04:36.708Z,7.90
2018-05-18T17:07:02.876Z,8.13
2018-05-18T17:09:29.081Z,8.27
2018-05-18T17:11:55.249Z,7.13
2018-05-18T17:14:21.397Z,7.33
2018-05-18T17:16:47.556Z,6.53
2018-05-18T17:19:13.769Z,6.53
2018-05-18T17:21:41.145Z,6.80
2018-05-18T17:24:07.392Z,6.37
2018-05-18T17:26:33.725Z,6.30
2018-05-18T17:29:00.890Z,6.20
2018-05-18T17:31:27.786Z,6.40
2018-05-18T17:33:54.508Z,5.60
2018-05-18T17:36:20.822Z,5.47
2018-05-18T17:38:47.731Z,6.07
2018-05-18T17:41:13.959Z,5.90
2018-05-18T17:43:40.142Z,5.60
2018-05-18T17:46:07.035Z,5.80
2018-05-18T17:48:33.195Z,6.10
2018-05-18T17:51:00.123Z,6.30
2018-05-18T17:53:26.272Z,6.30
2018-05-18T17:55:52.483Z,6.10
2018-05-18T17:58:18.723Z,6.13
2018-05-18T18:00:44.896Z,6.17
2018-05-18T18:03:11.072Z,5.33
2018-05-18T18:05:37.207Z,5.47
2018-05-18T18:08:03.465Z,6.07
2018-05-18T18:10:29.673Z,5.97
2018-05-18T18:12:55.932Z,5.43
2018-05-18T18:15:22.107Z,5.47
2018-05-18T18:17:49.035Z,5.37
2018-05-18T18:20:15.304Z,5.67
2018-05-18T18:22:41.541Z,6.20
2018-05-18T18:25:07.731Z,5.67
2018-05-18T18:27:33.969Z,5.10
2018-05-18T18:30:00.110Z,5.53
2018-05-18T18:32:26.273Z,5.80
2018-05-18T18:34:52.469Z,6.20
2018-05-18T18:37:18.612Z,6.03
2018-05-18T18:39:45.610Z,5.77
2018-05-18T18:42:11.816Z,6.00
2018-05-18T18:44:38.783Z,5.60
2018-05-18T18:47:05.212Z,6.33
2018-05-18T18:49:32.165Z,6.40
2018-05-18T18:51:59.605Z,6.33
2018-05-18T18:54:26.464Z,6.40
2018-05-18T18:56:52.700Z,6.07
2018-05-18T18:59:19.610Z,5.70
2018-05-18T19:01:46.579Z,5.50
2018-05-18T19:04:12.780Z,6.00
2018-05-18T19:06:39.099Z,5.93
2018-05-18T19:09:05.655Z,6.33
2018-05-18T19:11:31.817Z,5.83
2018-05-18T19:13:58.047Z,5.43
2018-05-18T19:16:25.915Z,5.80
2018-05-18T19:18:52.097Z,5.97
2018-05-18T19:21:18.357Z,4.87
2018-05-18T19:23:44.620Z,5.80
2018-05-18T19:26:10.860Z,5.63
2018-05-18T19:28:37.812Z,5.57
2018-05-18T19:31:04.027Z,5.07
2018-05-18T19:33:31.273Z,4.93
2018-05-18T19:35:58.369Z,5.27
2018-05-18T19:38:25.347Z,4.93
2018-05-18T19:40:51.604Z,5.30
2018-05-18T19:43:17.856Z,5.00
2018-05-18T19:45:44.100Z,5.77
2018-05-18T19:48:10.465Z,6.13
2018-05-18T19:50:37.422Z,5.63
2018-05-18T19:53:04.380Z,5.63
2018-05-18T19:55:30.597Z,5.50
2018-05-18T19:57:56.741Z,5.50
2018-05-18T20:00:23.736Z,5.60
2018-05-18T20:02:49.886Z,6.10
2018-05-18T20:05:16.040Z,5.20
2018-05-18T20:07:42.210Z,5.47
2018-05-18T20:10:09.210Z,5.47
2018-05-18T20:12:35.445Z,5.33
2018-05-18T20:15:01.710Z,5.00
2018-05-18T20:17:28.605Z,6.13
2018-05-18T20:19:55.110Z,5.57
2018-05-18T20:22:22.024Z,6.13
2018-05-18T20:24:49.083Z,6.47
2018-05-18T20:27:16.975Z,6.27
2018-05-18T20:29:43.228Z,6.20
2018-05-18T20:32:09.448Z,5.60
2018-05-18T20:34:35.632Z,6.07
2018-05-18T20:37:01.802Z,6.50
2018-05-18T20:39:27.999Z,6.30
2018-05-18T20:41:54.433Z,6.30
2018-05-18T20:44:20.556Z,6.20
2018-05-18T20:46:47.465Z,5.60
2018-05-18T20:49:13.663Z,6.97
2018-05-18T20:51:39.815Z,6.27
2018-05-18T20:54:06.402Z,5.37
2018-05-18T20:56:32.614Z,6.17
2018-05-18T20:58:58.827Z,5.93
2018-05-18T21:01:26.261Z,5.30
2018-05-18T21:03:52.497Z,4.93
2018-05-18T21:06:18.724Z,6.20
2018-05-18T21:08:44.929Z,5.53
2018-05-18T21:11:11.135Z,5.90
2018-05-18T21:13:38.784Z,5.60
2018-05-18T21:16:04.970Z,5.93
2018-05-18T21:18:31.151Z,6.87
2018-05-18T21:20:58.161Z,6.00
2018-05-18T21:23:24.354Z,6.00
2018-05-18T21:25:50.598Z,5.90
2018-05-18T21:28:16.811Z,6.07
2018-05-18T21:30:43.040Z,5.37
2018-05-18T21:33:09.174Z,5.37
2018-05-18T21:35:35.380Z,5.83
2018-05-18T21:38:01.593Z,5.40
2018-05-18T21:40:27.774Z,6.20
2018-05-18T21:42:53.941Z,5.90
2018-05-18T21:45:21.682Z,5.70
2018-05-18T21:47:47.899Z,6.13
2018-05-18T21:50:14.880Z,5.57
2018-05-18T21:52:41.068Z,5.93
2018-05-18T21:55:07.202Z,6.60
2018-05-18T21:57:33.395Z,6.63
2018-05-18T21:59:59.582Z,5.43
2018-05-18T22:02:25.781Z,5.93
2018-05-18T22:04:51.968Z,5.70
2018-05-18T22:07:18.128Z,5.87
2018-05-18T22:09:44.643Z,5.97
2018-05-18T22:12:11.593Z,5.90
2018-05-18T22:14:38.476Z,6.27
2018-05-18T22:17:05.394Z,6.03
2018-05-18T22:19:31.777Z,5.50
2018-05-18T22:21:57.958Z,5.57
2018-05-18T22:24:24.207Z,6.73
2018-05-18T22:26:50.499Z,5.47
2018-05-18T22:29:16.656Z,5.40
2018-05-18T22:31:42.771Z,5.77
2018-05-18T22:34:08.998Z,5.87
2018-05-18T22:36:35.170Z,6.23
2018-05-18T22:39:01.421Z,6.07
2018-05-18T22:41:27.912Z,6.50
2018-05-18T22:43:54.888Z,5.93
2018-05-18T22:46:21.077Z,5.83
2018-05-18T22:48:48.111Z,5.73
2018-05-18T22:51:14.815Z,5.70
2018-05-18T22:53:40.997Z,5.73
2018-05-18T22:56:07.173Z,6.00
2018-05-18T22:58:33.322Z,5.60
2018-05-18T23:00:59.470Z,5.83
2018-05-18T23:03:26.371Z,5.93
2018-05-18T23:05:52.588Z,5.87
2018-05-18T23:08:18.763Z,6.00
2018-05-18T23:10:44.953Z,5.60
2018-05-18T23:13:11.951Z,5.57
2018-05-18T23:15:38.883Z,5.80
2018-05-18T23:18:05.852Z,5.57
2018-05-18T23:20:32.782Z,8.30
2018-05-18T23:22:59.056Z,5.87
2018-05-18T23:25:26.046Z,5.77
2018-05-18T23:27:52.243Z,5.93
2018-05-18T23:30:19.157Z,5.37
2018-05-18T23:32:45.355Z,5.67
2018-05-18T23:35:11.571Z,5.60
2018-05-18T23:37:37.805Z,6.40
2018-05-18T23:40:04.710Z,5.87
2018-05-18T23:42:30.878Z,6.60
2018-05-18T23:44:57.780Z,5.37
2018-05-18T23:47:23.961Z,5.57
2018-05-18T23:49:50.188Z,6.93
2018-05-18T23:52:17.505Z,5.90
2018-05-18T23:54:43.681Z,5.93
2018-05-18T23:57:10.630Z,6.17
2018-05-18T23:59:36.803Z,6.03
